createdAt,value
2022-09-25T00:00:51.713Z,16.10
2022-09-25T00:03:18.950Z,16.10
2022-09-25T00:05:46.814Z,16.10
2022-09-25T00:08:14.845Z,16.10
2022-09-25T00:10:47.228Z,16.10
2022-09-25T00:13:15.064Z,16.10
2022-09-25T00:15:56.114Z,16.10
2022-09-25T00:18:42.802Z,16.10
2022-09-25T00:21:12.648Z,16.10
2022-09-25T00:23:40.780Z,16.10
2022-09-25T00:26:09.085Z,16.00
2022-09-25T00:28:36.745Z,16.00
2022-09-25T00:31:04.807Z,16.00
2022-09-25T00:33:35.253Z,16.00
2022-09-25T00:36:07.309Z,16.00
2022-09-25T00:38:35.873Z,16.00
2022-09-25T00:41:03.247Z,16.00
2022-09-25T00:43:51.180Z,16.00
2022-09-25T00:46:17.783Z,16.00
2022-09-25T00:48:52.500Z,16.00
2022-09-25T00:51:22.394Z,16.00
2022-09-25T00:53:49.912Z,16.00
2022-09-25T00:56:16.810Z,16.00
2022-09-25T00:58:43.825Z,15.90
2022-09-25T01:01:10.827Z,15.90
2022-09-25T01:03:40.169Z,15.90
2022-09-25T01:06:07.013Z,15.90
2022-09-25T01:08:34.779Z,15.90
2022-09-25T01:11:02.046Z,15.80
2022-09-25T01:13:30.011Z,15.80
2022-09-25T01:15:56.677Z,15.80
2022-09-25T01:18:57.465Z,15.80
2022-09-25T01:21:37.385Z,15.80
2022-09-25T01:24:39.046Z,15.80
2022-09-25T01:27:25.965Z,15.80
2022-09-25T01:30:01.402Z,15.80
2022-09-25T01:32:59.782Z,15.80
2022-09-25T01:35:47.667Z,15.80
2022-09-25T01:38:46.877Z,15.80
2022-09-25T01:41:30.304Z,15.80
2022-09-25T01:44:03.942Z,15.80
2022-09-25T01:46:37.025Z,15.80
2022-09-25T01:49:14.201Z,15.80
2022-09-25T01:54:53.058Z,15.80
2022-09-25T01:58:10.820Z,15.80
2022-09-25T02:00:44.461Z,15.80
2022-09-25T02:03:22.431Z,15.80
2022-09-25T02:05:56.977Z,15.80
2022-09-25T02:08:36.505Z,15.80
2022-09-25T02:11:05.621Z,15.80
2022-09-25T02:13:49.557Z,15.80
2022-09-25T02:16:30.269Z,15.80
2022-09-25T02:19:15.543Z,15.80
2022-09-25T02:21:50.692Z,15.80
2022-09-25T02:24:59.806Z,15.80
2022-09-25T02:27:27.895Z,15.70
2022-09-25T02:29:57.013Z,15.80
2022-09-25T02:32:34.347Z,15.80
2022-09-25T02:35:02.661Z,15.80
2022-09-25T02:37:29.812Z,15.80
2022-09-25T02:39:59.870Z,15.80
2022-09-25T02:42:56.095Z,15.80
2022-09-25T02:45:50.921Z,15.80
2022-09-25T02:48:36.062Z,15.80
2022-09-25T02:51:20.262Z,15.80
2022-09-25T02:54:07.318Z,15.80
2022-09-25T02:57:07.753Z,15.70
2022-09-25T02:59:38.570Z,15.70
2022-09-25T03:02:05.853Z,15.70
2022-09-25T03:04:36.427Z,15.70
2022-09-25T03:07:06.106Z,15.70
2022-09-25T03:09:40.825Z,15.60
2022-09-25T03:12:13.063Z,15.60
2022-09-25T03:17:27.757Z,15.50
2022-09-25T03:19:54.315Z,15.60
2022-09-25T03:22:20.878Z,15.50
2022-09-25T03:24:48.003Z,15.50
2022-09-25T03:27:15.723Z,15.60
2022-09-25T03:29:42.584Z,15.50
2022-09-25T03:32:10.095Z,15.50
2022-09-25T03:34:36.633Z,15.50
2022-09-25T03:37:03.229Z,15.50
2022-09-25T03:39:29.773Z,15.50
2022-09-25T03:41:56.381Z,15.50
2022-09-25T03:44:22.946Z,15.50
2022-09-25T03:46:49.495Z,15.50
2022-09-25T03:49:16.122Z,15.50
2022-09-25T03:51:50.270Z,15.50
2022-09-25T03:54:19.152Z,15.50
2022-09-25T03:56:48.055Z,15.50
2022-09-25T03:59:25.819Z,15.40
2022-09-25T04:02:02.512Z,15.30
2022-09-25T04:04:32.601Z,15.50
2022-09-25T04:06:59.162Z,15.50
2022-09-25T04:09:25.732Z,15.50
2022-09-25T04:11:55.601Z,15.50
2022-09-25T04:14:35.753Z,15.50
2022-09-25T04:19:45.846Z,15.50
2022-09-25T04:22:14.059Z,15.50
2022-09-25T04:24:49.648Z,15.30
2022-09-25T04:27:22.557Z,15.50
2022-09-25T04:30:12.400Z,15.40
2022-09-25T04:32:57.472Z,15.50
2022-09-25T04:35:24.581Z,15.50
2022-09-25T04:37:51.114Z,15.50
2022-09-25T04:40:17.842Z,15.50
2022-09-25T04:42:44.462Z,15.40
2022-09-25T04:45:11.196Z,15.50
2022-09-25T04:47:37.768Z,15.30
2022-09-25T04:50:04.683Z,15.40
2022-09-25T04:52:31.753Z,15.40
2022-09-25T04:54:58.381Z,15.40
2022-09-25T04:57:53.388Z,15.30
2022-09-25T05:00:17.058Z,15.30
2022-09-25T05:02:43.705Z,15.30
2022-09-25T05:05:10.519Z,15.30
2022-09-25T05:07:37.252Z,15.30
2022-09-25T05:10:04.167Z,15.30
2022-09-25T05:12:30.722Z,15.30
2022-09-25T05:14:57.260Z,15.30
2022-09-25T05:17:23.851Z,15.30
2022-09-25T05:19:50.446Z,15.20
2022-09-25T05:22:17.039Z,15.20
2022-09-25T05:24:43.580Z,15.20
2022-09-25T05:27:10.191Z,15.20
2022-09-25T05:29:37.245Z,15.20
2022-09-25T05:32:03.809Z,15.20
2022-09-25T05:34:30.379Z,15.10
2022-09-25T05:36:56.964Z,15.10
2022-09-25T05:39:23.544Z,15.10
2022-09-25T05:41:50.128Z,15.10
2022-09-25T05:44:16.742Z,15.10
2022-09-25T05:46:43.343Z,15.10
2022-09-25T05:49:09.911Z,15.10
2022-09-25T05:51:36.467Z,15.10
2022-09-25T05:54:03.138Z,15.10
2022-09-25T05:56:29.713Z,15.10
2022-09-25T05:58:58.625Z,15.20
2022-09-25T06:01:25.963Z,15.20
2022-09-25T06:03:52.768Z,15.20
2022-09-25T06:06:23.710Z,15.10
2022-09-25T06:08:54.325Z,15.10
2022-09-25T06:11:20.881Z,15.10
2022-09-25T06:13:54.207Z,15.10
2022-09-25T06:16:21.326Z,15.10
2022-09-25T06:18:48.020Z,15.10
2022-09-25T06:21:14.658Z,15.00
2022-09-25T06:23:48.564Z,15.10
2022-09-25T06:26:15.148Z,15.10
2022-09-25T06:28:41.715Z,15.10
2022-09-25T06:31:08.926Z,15.10
2022-09-25T06:33:35.562Z,15.10
2022-09-25T06:36:04.588Z,15.10
2022-09-25T06:38:33.212Z,15.10
2022-09-25T06:41:00.525Z,15.10
2022-09-25T06:43:28.261Z,15.10
2022-09-25T06:45:54.967Z,15.10
2022-09-25T06:48:22.224Z,15.10
2022-09-25T06:50:51.491Z,15.10
2022-09-25T06:53:20.217Z,15.10
2022-09-25T06:55:47.802Z,15.00
2022-09-25T06:58:17.098Z,15.00
2022-09-25T07:00:47.829Z,15.10
2022-09-25T07:03:33.713Z,15.00
2022-09-25T07:06:01.197Z,15.00
2022-09-25T07:08:28.191Z,15.10
2022-09-25T07:10:56.859Z,15.10
2022-09-25T07:13:26.106Z,15.10
2022-09-25T07:15:54.109Z,15.10
2022-09-25T07:18:22.393Z,15.10
2022-09-25T07:20:49.750Z,15.10
2022-09-25T07:23:18.134Z,15.20
2022-09-25T07:25:45.361Z,15.20
2022-09-25T07:28:13.916Z,15.20
2022-09-25T07:30:42.176Z,15.20
2022-09-25T07:33:09.102Z,15.20
2022-09-25T07:35:36.784Z,15.20
2022-09-25T07:38:04.353Z,15.20
2022-09-25T07:40:33.755Z,15.20
2022-09-25T07:43:01.132Z,15.20
2022-09-25T07:45:28.597Z,15.20
2022-09-25T07:48:00.760Z,15.20
2022-09-25T07:50:29.320Z,15.30
2022-09-25T07:52:56.054Z,15.30
2022-09-25T07:55:24.763Z,15.30
2022-09-25T07:57:52.069Z,15.30
2022-09-25T08:00:18.942Z,15.30
2022-09-25T08:02:54.831Z,15.40
2022-09-25T08:05:21.430Z,15.40
2022-09-25T08:07:48.067Z,15.40
2022-09-25T08:10:14.794Z,15.40
2022-09-25T08:12:42.275Z,15.40
2022-09-25T08:15:10.607Z,15.40
2022-09-25T08:17:37.198Z,15.40
2022-09-25T08:20:04.096Z,15.40
2022-09-25T08:22:30.714Z,15.40
2022-09-25T08:24:57.307Z,15.50
2022-09-25T08:27:23.918Z,15.50
2022-09-25T08:29:50.566Z,15.50
2022-09-25T08:32:17.200Z,15.50
2022-09-25T08:34:44.174Z,15.50
2022-09-25T08:37:11.073Z,15.60
2022-09-25T08:39:37.812Z,15.50
2022-09-25T08:42:05.478Z,15.50
2022-09-25T08:45:20.941Z,15.50
2022-09-25T08:48:09.953Z,15.50
2022-09-25T08:50:37.593Z,15.50
2022-09-25T08:53:16.971Z,15.50
2022-09-25T08:56:02.450Z,15.60
2022-09-25T08:58:32.488Z,15.60
2022-09-25T09:01:10.429Z,15.60
2022-09-25T09:03:52.469Z,15.60
2022-09-25T09:06:19.482Z,15.60
2022-09-25T09:08:53.216Z,15.60
2022-09-25T09:11:26.648Z,15.60
2022-09-25T09:14:17.848Z,15.50
2022-09-25T09:16:51.573Z,15.40
2022-09-25T09:19:18.288Z,15.40
2022-09-25T09:21:51.778Z,15.40
2022-09-25T09:24:47.536Z,15.40
2022-09-25T09:27:43.082Z,15.40
2022-09-25T09:30:21.791Z,15.50
2022-09-25T09:32:57.961Z,15.60
2022-09-25T09:35:48.593Z,15.70
2022-09-25T09:38:52.884Z,15.80
2022-09-25T09:41:38.396Z,15.90
2022-09-25T09:44:21.721Z,15.90
2022-09-25T09:47:06.161Z,16.00
2022-09-25T09:49:51.083Z,16.00
2022-09-25T09:52:22.053Z,16.10
2022-09-25T09:55:27.697Z,16.10
2022-09-25T09:58:05.040Z,16.10
2022-09-25T10:00:34.201Z,16.10
2022-09-25T10:03:23.388Z,16.10
2022-09-25T10:05:54.853Z,16.10
2022-09-25T10:08:25.665Z,16.00
2022-09-25T10:10:54.847Z,16.10
2022-09-25T10:13:36.128Z,16.20
2022-09-25T10:16:19.069Z,16.30
2022-09-25T10:18:56.972Z,16.40
2022-09-25T10:21:27.297Z,16.50
2022-09-25T10:23:55.874Z,16.50
2022-09-25T10:26:37.069Z,16.50
2022-09-25T10:29:08.130Z,16.60
2022-09-25T10:31:38.486Z,16.60
2022-09-25T10:34:16.347Z,16.60
2022-09-25T10:36:46.226Z,16.70
2022-09-25T10:39:49.490Z,16.70
2022-09-25T10:42:39.355Z,16.70
2022-09-25T10:45:28.845Z,16.80
2022-09-25T10:48:16.530Z,16.80
2022-09-25T10:50:43.379Z,16.80
2022-09-25T10:53:30.124Z,16.80
2022-09-25T10:56:07.518Z,16.80
2022-09-25T10:58:54.995Z,16.70
2022-09-25T11:01:30.567Z,16.70
2022-09-25T11:03:59.277Z,16.70
2022-09-25T11:06:34.793Z,16.70
2022-09-25T11:09:16.478Z,16.80
2022-09-25T11:11:46.077Z,16.80
2022-09-25T11:14:32.645Z,16.90
2022-09-25T11:17:01.476Z,16.90
2022-09-25T11:19:36.793Z,16.90
2022-09-25T11:22:25.996Z,16.90
2022-09-25T11:25:22.131Z,16.90
2022-09-25T11:27:58.325Z,16.90
2022-09-25T11:30:32.076Z,16.80
2022-09-25T11:33:16.719Z,16.70
2022-09-25T11:35:56.965Z,16.60
2022-09-25T11:39:06.671Z,16.30
2022-09-25T11:41:38.585Z,15.90
2022-09-25T11:44:24.307Z,15.60
2022-09-25T11:47:10.464Z,15.40
2022-09-25T11:49:40.889Z,15.20
2022-09-25T11:52:20.308Z,15.00
2022-09-25T11:55:08.109Z,14.90
2022-09-25T11:58:02.122Z,14.90
2022-09-25T12:01:03.015Z,14.90
2022-09-25T12:03:56.911Z,15.00
2022-09-25T12:06:35.455Z,14.80
2022-09-25T12:09:11.314Z,14.80
2022-09-25T12:12:07.351Z,14.80
2022-09-25T12:14:50.655Z,14.80
2022-09-25T12:17:17.826Z,14.90
2022-09-25T12:20:12.420Z,15.00
2022-09-25T12:23:06.997Z,15.20
2022-09-25T12:25:51.593Z,15.30
2022-09-25T12:28:40.817Z,15.40
2022-09-25T12:31:35.058Z,15.50
2022-09-25T12:34:37.826Z,15.60
2022-09-25T12:37:43.492Z,15.60
2022-09-25T12:40:32.511Z,15.60
2022-09-25T12:43:09.584Z,15.60
2022-09-25T12:45:45.753Z,15.50
2022-09-25T12:48:21.132Z,15.60
2022-09-25T12:51:11.458Z,15.60
2022-09-25T12:53:54.969Z,15.70
2022-09-25T12:56:48.236Z,15.70
2022-09-25T12:59:49.369Z,15.80
2022-09-25T13:02:29.213Z,15.90
2022-09-25T13:05:07.730Z,15.60
2022-09-25T13:07:50.871Z,15.10
2022-09-25T13:10:36.654Z,14.90
2022-09-25T13:13:09.349Z,14.90
2022-09-25T13:15:40.259Z,14.70
2022-09-25T13:18:13.064Z,14.70
2022-09-25T13:20:41.961Z,14.80
2022-09-25T13:23:26.790Z,14.90
2022-09-25T13:26:02.542Z,14.90
2022-09-25T13:28:29.121Z,15.00
2022-09-25T13:31:09.098Z,15.20
2022-09-25T13:34:12.326Z,15.30
2022-09-25T13:36:45.013Z,15.30
2022-09-25T13:39:36.732Z,15.50
2022-09-25T13:42:25.397Z,15.50
2022-09-25T13:45:16.209Z,15.60
2022-09-25T13:47:50.357Z,15.70
2022-09-25T13:50:23.265Z,15.70
2022-09-25T13:53:09.805Z,15.80
2022-09-25T13:56:03.525Z,15.80
2022-09-25T13:58:32.361Z,15.90
2022-09-25T14:01:01.265Z,15.90
2022-09-25T14:03:32.730Z,15.90
2022-09-25T14:06:00.692Z,15.90
2022-09-25T14:08:30.985Z,16.00
2022-09-25T14:11:00.074Z,16.00
2022-09-25T14:13:28.529Z,16.10
2022-09-25T14:15:59.678Z,16.10
2022-09-25T14:18:40.934Z,16.10
2022-09-25T14:21:09.842Z,16.10
2022-09-25T14:23:48.636Z,16.20
2022-09-25T14:26:27.629Z,16.20
2022-09-25T14:28:56.920Z,16.20
2022-09-25T14:31:29.813Z,16.30
2022-09-25T14:34:02.271Z,16.30
2022-09-25T14:36:44.462Z,16.30
2022-09-25T14:39:58.248Z,16.40
2022-09-25T14:42:43.889Z,16.40
2022-09-25T14:45:39.386Z,16.40
2022-09-25T14:48:30.830Z,16.30
2022-09-25T14:51:02.250Z,16.30
2022-09-25T14:53:37.695Z,16.30
2022-09-25T14:56:09.430Z,16.30
2022-09-25T14:58:40.416Z,16.20
2022-09-25T15:01:30.627Z,16.20
2022-09-25T15:04:09.027Z,16.30
2022-09-25T15:06:39.180Z,16.30
2022-09-25T15:09:35.915Z,16.30
2022-09-25T15:12:18.809Z,16.30
2022-09-25T15:15:07.617Z,16.40
2022-09-25T15:17:51.324Z,16.40
2022-09-25T15:20:21.529Z,16.40
2022-09-25T15:23:05.985Z,16.40
2022-09-25T15:25:59.540Z,16.40
2022-09-25T15:28:27.351Z,16.30
2022-09-25T15:30:59.289Z,16.30
2022-09-25T15:33:32.035Z,16.30
2022-09-25T15:35:59.859Z,16.30
2022-09-25T15:38:35.561Z,16.30
2022-09-25T15:41:03.412Z,16.30
2022-09-25T15:43:30.428Z,16.40
2022-09-25T15:46:05.550Z,16.40
2022-09-25T15:48:38.652Z,16.30
2022-09-25T15:51:20.810Z,16.30
2022-09-25T15:53:57.781Z,16.30
2022-09-25T15:56:45.676Z,16.20
2022-09-25T15:59:59.471Z,16.30
2022-09-25T16:02:51.804Z,16.30
2022-09-25T16:05:35.080Z,16.30
2022-09-25T16:08:24.776Z,16.30
2022-09-25T16:11:16.665Z,16.30
2022-09-25T16:13:49.147Z,16.30
2022-09-25T16:16:29.705Z,16.40
2022-09-25T16:18:59.150Z,16.30
2022-09-25T16:21:38.083Z,16.30
2022-09-25T16:24:17.962Z,16.30
2022-09-25T16:26:45.911Z,16.40
2022-09-25T16:29:13.162Z,16.40
2022-09-25T16:31:45.329Z,16.30
2022-09-25T16:34:28.023Z,16.30
2022-09-25T16:37:00.573Z,16.30
2022-09-25T16:39:37.198Z,16.30
2022-09-25T16:42:30.343Z,16.30
2022-09-25T16:45:27.597Z,16.30
2022-09-25T16:47:54.395Z,16.30
2022-09-25T16:50:22.129Z,16.30
2022-09-25T16:52:56.140Z,16.20
2022-09-25T16:55:26.140Z,16.30
2022-09-25T16:57:55.771Z,16.20
2022-09-25T17:00:29.732Z,16.20
2022-09-25T17:02:56.598Z,16.00
2022-09-25T17:05:27.720Z,15.90
2022-09-25T17:07:57.441Z,16.00
2022-09-25T17:10:29.212Z,15.90
2022-09-25T17:12:57.762Z,15.80
2022-09-25T17:15:29.366Z,15.60
2022-09-25T17:17:56.301Z,15.50
2022-09-25T17:20:26.623Z,15.40
2022-09-25T17:22:54.443Z,15.30
2022-09-25T17:25:48.136Z,15.20
2022-09-25T17:28:15.872Z,15.20
2022-09-25T17:30:44.016Z,15.10
2022-09-25T17:33:16.307Z,15.10
2022-09-25T17:36:00.150Z,15.00
2022-09-25T17:38:27.243Z,14.90
2022-09-25T17:40:57.148Z,14.90
2022-09-25T17:43:25.563Z,14.90
2022-09-25T17:45:54.341Z,14.80
2022-09-25T17:48:32.968Z,14.80
2022-09-25T17:51:00.701Z,14.70
2022-09-25T17:53:29.861Z,14.60
2022-09-25T17:55:57.813Z,14.60
2022-09-25T17:58:25.675Z,14.50
2022-09-25T18:00:53.848Z,14.50
2022-09-25T18:03:21.351Z,14.40
2022-09-25T18:05:48.401Z,14.40
2022-09-25T18:08:16.534Z,14.40
2022-09-25T18:10:43.129Z,14.40
2022-09-25T18:13:14.233Z,14.30
2022-09-25T18:15:48.743Z,14.20
2022-09-25T18:18:15.955Z,14.20
2022-09-25T18:21:04.522Z,14.10
2022-09-25T18:23:35.050Z,14.10
2022-09-25T18:26:07.471Z,14.00
2022-09-25T18:28:34.132Z,14.10
2022-09-25T18:31:00.849Z,14.00
2022-09-25T18:33:27.623Z,14.10
2022-09-25T18:35:54.622Z,14.00
2022-09-25T18:38:21.235Z,13.90
2022-09-25T18:40:47.985Z,13.90
2022-09-25T18:43:14.649Z,13.90
2022-09-25T18:45:49.015Z,13.80
2022-09-25T18:48:16.081Z,13.80
2022-09-25T18:50:46.753Z,13.80
2022-09-25T18:53:14.459Z,13.70
2022-09-25T18:55:43.712Z,13.70
2022-09-25T18:58:11.096Z,13.70
2022-09-25T19:00:38.078Z,13.60
2022-09-25T19:03:05.155Z,13.60
2022-09-25T19:05:32.573Z,13.60
2022-09-25T19:07:59.275Z,13.60
2022-09-25T19:10:26.093Z,13.50
2022-09-25T19:12:52.828Z,13.50
2022-09-25T19:15:19.584Z,13.50
2022-09-25T19:17:46.854Z,13.40
2022-09-25T19:20:13.704Z,13.40
2022-09-25T19:22:41.235Z,13.30
2022-09-25T19:25:08.145Z,13.30
2022-09-25T19:27:34.729Z,13.20
2022-09-25T19:30:01.988Z,13.20
2022-09-25T19:32:28.678Z,13.20
2022-09-25T19:34:55.337Z,13.30
2022-09-25T19:37:25.276Z,13.30
2022-09-25T19:40:10.288Z,13.20
2022-09-25T19:42:37.391Z,13.30
2022-09-25T19:45:04.311Z,13.20
2022-09-25T19:47:31.871Z,13.20
2022-09-25T19:49:58.667Z,13.10
2022-09-25T19:52:25.326Z,13.10
2022-09-25T19:54:51.974Z,13.10
2022-09-25T19:57:18.742Z,13.00
2022-09-25T19:59:45.377Z,13.00
2022-09-25T20:02:12.384Z,13.10
2022-09-25T20:04:39.344Z,13.10
2022-09-25T20:07:06.965Z,13.10
2022-09-25T20:09:37.595Z,13.10
2022-09-25T20:12:06.525Z,13.10
2022-09-25T20:14:33.171Z,13.10
2022-09-25T20:17:00.182Z,13.20
2022-09-25T20:19:28.188Z,13.10
2022-09-25T20:21:55.421Z,13.10
2022-09-25T20:24:22.860Z,13.10
2022-09-25T20:26:49.994Z,13.00
2022-09-25T20:29:18.365Z,13.00
2022-09-25T20:31:45.875Z,13.00
2022-09-25T20:34:15.096Z,13.00
2022-09-25T20:36:42.325Z,13.00
2022-09-25T20:39:09.340Z,13.10
2022-09-25T20:41:36.491Z,13.10
2022-09-25T20:44:05.310Z,13.10
2022-09-25T20:46:32.954Z,13.10
2022-09-25T20:49:00.493Z,13.10
2022-09-25T20:51:29.784Z,13.10
2022-09-25T20:54:02.410Z,13.20
2022-09-25T20:56:30.918Z,13.00
2022-09-25T20:58:58.473Z,13.00
2022-09-25T21:01:28.221Z,13.00
2022-09-25T21:03:55.487Z,13.00
2022-09-25T21:06:28.112Z,13.00
2022-09-25T21:08:57.464Z,13.00
2022-09-25T21:11:25.639Z,12.90
2022-09-25T21:13:54.568Z,12.90
2022-09-25T21:16:22.512Z,12.90
2022-09-25T21:18:54.942Z,12.90
2022-09-25T21:21:22.985Z,12.90
2022-09-25T21:23:51.627Z,12.80
2022-09-25T21:26:18.744Z,12.80
2022-09-25T21:28:47.534Z,12.80
2022-09-25T21:31:15.484Z,12.70
2022-09-25T21:33:42.623Z,12.80
2022-09-25T21:36:14.435Z,12.80
2022-09-25T21:38:42.248Z,12.80
2022-09-25T21:41:13.683Z,12.80
2022-09-25T21:43:40.899Z,12.90
2022-09-25T21:46:14.173Z,12.80
2022-09-25T21:48:46.467Z,12.80
2022-09-25T21:51:13.487Z,12.80
2022-09-25T21:53:40.496Z,12.90
2022-09-25T21:56:12.949Z,12.90
2022-09-25T21:58:39.649Z,12.90
2022-09-25T22:01:12.032Z,12.80
2022-09-25T22:03:41.331Z,12.80
2022-09-25T22:06:13.734Z,12.80
2022-09-25T22:08:43.918Z,12.80
2022-09-25T22:11:12.002Z,12.80
2022-09-25T22:13:41.420Z,12.80
2022-09-25T22:16:11.117Z,12.70
2022-09-25T22:18:46.500Z,12.80
2022-09-25T22:21:15.732Z,12.80
2022-09-25T22:23:43.109Z,12.80
2022-09-25T22:26:10.644Z,12.80
2022-09-25T22:28:37.824Z,12.80
2022-09-25T22:31:11.944Z,12.80
2022-09-25T22:33:39.285Z,12.80
2022-09-25T22:36:08.256Z,12.80
2022-09-25T22:38:36.189Z,12.80
2022-09-25T22:41:08.994Z,12.80
2022-09-25T22:43:35.919Z,12.90
2022-09-25T22:46:03.017Z,12.90
2022-09-25T22:48:30.073Z,12.90
2022-09-25T22:51:03.863Z,13.00
2022-09-25T22:53:33.131Z,13.00
2022-09-25T22:56:17.478Z,13.00
2022-09-25T22:58:49.726Z,13.00
2022-09-25T23:01:27.268Z,12.90
2022-09-25T23:03:59.530Z,12.80
2022-09-25T23:06:29.021Z,12.70
2022-09-25T23:08:57.771Z,12.60
2022-09-25T23:11:25.961Z,12.60
2022-09-25T23:14:01.467Z,12.50
2022-09-25T23:16:28.687Z,12.50
2022-09-25T23:18:58.857Z,12.50
2022-09-25T23:21:26.734Z,12.50
2022-09-25T23:24:01.574Z,12.50
2022-09-25T23:26:28.813Z,12.50
2022-09-25T23:28:55.539Z,12.50
2022-09-25T23:31:22.219Z,12.50
2022-09-25T23:33:49.044Z,12.50
2022-09-25T23:36:21.515Z,12.50
2022-09-25T23:38:50.720Z,12.50
2022-09-25T23:41:23.641Z,12.50
2022-09-25T23:43:51.510Z,12.60
2022-09-25T23:46:19.880Z,12.50
2022-09-25T23:48:46.616Z,12.50
2022-09-25T23:51:14.521Z,12.40
2022-09-25T23:53:42.413Z,12.50
2022-09-25T23:56:17.932Z,12.40
2022-09-25T23:58:44.537Z,12.50
